createdAt,value
2018-04-28T00:00:05.133Z,9.50
2018-04-28T00:01:09.353Z,9.50
2018-04-28T00:02:13.615Z,9.50
2018-04-28T00:03:17.873Z,9.50
2018-04-28T00:04:22.074Z,9.50
2018-04-28T00:05:26.266Z,9.50
2018-04-28T00:06:30.455Z,9.50
2018-04-28T00:07:34.712Z,9.40
2018-04-28T00:08:42.757Z,9.40
2018-04-28T00:09:47.725Z,9.40
2018-04-28T00:10:51.952Z,9.40
2018-04-28T00:11:56.163Z,9.40
2018-04-28T00:13:00.407Z,9.40
2018-04-28T00:14:04.593Z,9.30
2018-04-28T00:15:08.804Z,9.30
2018-04-28T00:16:16.424Z,9.30
2018-04-28T00:17:21.385Z,9.30
2018-04-28T00:18:26.542Z,9.30
2018-04-28T00:19:32.556Z,9.30
2018-04-28T00:20:36.721Z,9.30
2018-04-28T00:21:49.417Z,9.30
2018-04-28T00:23:01.063Z,9.30
2018-04-28T00:24:05.287Z,9.30
2018-04-28T00:25:32.530Z,9.30
2018-04-28T00:26:38.170Z,9.30
2018-04-28T00:27:46.045Z,9.20
2018-04-28T00:28:53.248Z,9.20
2018-04-28T00:30:11.977Z,9.20
2018-04-28T00:31:18.319Z,9.20
2018-04-28T00:32:22.526Z,9.20
2018-04-28T00:33:31.128Z,9.20
2018-04-28T00:34:55.841Z,9.30
2018-04-28T00:37:56.077Z,9.50
2018-04-28T00:39:03.248Z,9.40
2018-04-28T00:41:59.372Z,9.30
2018-04-28T00:43:03.578Z,9.30
2018-04-28T00:44:18.524Z,9.20
2018-04-28T00:45:32.268Z,9.10
2018-04-28T00:46:36.477Z,9.10
2018-04-28T00:47:42.464Z,9.10
2018-04-28T00:48:49.245Z,9.10
2018-04-28T00:51:32.405Z,9.10
2018-04-28T00:52:37.356Z,9.00
2018-04-28T00:53:41.573Z,9.00
2018-04-28T00:54:46.473Z,8.90
2018-04-28T00:55:52.079Z,8.80
2018-04-28T00:57:03.913Z,8.80
2018-04-28T00:58:19.193Z,8.70
2018-04-28T00:59:23.409Z,8.70
2018-04-28T01:01:06.704Z,8.70
2018-04-28T01:02:11.241Z,8.60
2018-04-28T01:03:16.215Z,8.50
2018-04-28T01:05:55.617Z,8.50
2018-04-28T01:07:00.575Z,8.50
2018-04-28T01:08:04.789Z,8.40
2018-04-28T01:09:08.988Z,8.50
2018-04-28T01:10:32.030Z,8.40
2018-04-28T01:11:36.976Z,8.40
2018-04-28T01:12:57.906Z,8.40
2018-04-28T01:14:12.785Z,8.40
2018-04-28T01:15:29.582Z,8.40
2018-04-28T01:16:38.412Z,8.40
2018-04-28T01:17:54.257Z,8.40
2018-04-28T01:19:33.909Z,8.40
2018-04-28T01:21:09.579Z,8.50
2018-04-28T01:22:14.667Z,8.40
2018-04-28T01:23:20.676Z,8.40
2018-04-28T01:24:36.345Z,8.40
2018-04-28T01:25:42.402Z,8.40
2018-04-28T01:27:12.386Z,8.40
2018-04-28T01:31:48.363Z,8.60
2018-04-28T01:34:29.936Z,8.60
2018-04-28T01:37:52.975Z,8.50
2018-04-28T01:39:05.454Z,8.50
2018-04-28T01:40:12.548Z,8.50
2018-04-28T01:41:24.168Z,8.50
2018-04-28T01:42:44.541Z,8.50
2018-04-28T01:44:06.453Z,8.50
2018-04-28T01:45:31.397Z,8.60
2018-04-28T01:46:57.589Z,8.60
2018-04-28T01:48:19.209Z,8.50
2018-04-28T01:52:42.017Z,8.60
2018-04-28T01:53:48.591Z,8.60
2018-04-28T01:56:59.405Z,8.70
2018-04-28T01:58:10.788Z,8.70
2018-04-28T01:59:14.973Z,8.70
2018-04-28T02:00:45.002Z,8.70
2018-04-28T02:01:49.965Z,8.80
2018-04-28T02:03:07.084Z,8.80
2018-04-28T02:04:13.223Z,8.80
2018-04-28T02:07:03.398Z,8.90
2018-04-28T02:08:09.769Z,8.90
2018-04-28T02:09:21.613Z,8.90
2018-04-28T02:13:46.999Z,9.00
2018-04-28T02:16:35.480Z,9.10
2018-04-28T02:19:31.506Z,9.10
2018-04-28T02:20:54.200Z,9.10
2018-04-28T02:22:16.232Z,9.10
2018-04-28T02:26:48.742Z,9.20
2018-04-28T02:30:07.641Z,9.30
2018-04-28T02:33:05.185Z,9.40
2018-04-28T02:34:24.013Z,9.40
2018-04-28T02:35:37.214Z,9.40
2018-04-28T02:38:25.362Z,9.50
2018-04-28T02:39:31.301Z,9.60
2018-04-28T02:40:41.289Z,9.60
2018-04-28T02:43:21.225Z,9.70
2018-04-28T02:44:34.649Z,9.80
2018-04-28T02:46:13.384Z,9.80
2018-04-28T02:47:21.164Z,9.90
2018-04-28T02:48:35.714Z,9.90
2018-04-28T02:50:01.371Z,9.90
2018-04-28T02:51:09.225Z,9.90
2018-04-28T02:52:22.933Z,10.00
2018-04-28T02:53:30.538Z,10.00
2018-04-28T02:56:31.949Z,10.00
2018-04-28T03:02:37.998Z,10.00
2018-04-28T03:04:02.019Z,10.00
2018-04-28T03:05:10.382Z,10.00
2018-04-28T03:06:22.218Z,10.00
2018-04-28T03:09:08.965Z,10.00
2018-04-28T03:10:18.720Z,10.00
2018-04-28T03:11:22.928Z,10.00
2018-04-28T03:12:27.146Z,10.00
2018-04-28T03:13:31.374Z,10.00
2018-04-28T03:14:39.000Z,10.00
2018-04-28T03:15:43.191Z,10.00
2018-04-28T03:16:58.096Z,10.10
2018-04-28T03:18:03.070Z,10.10
2018-04-28T03:19:18.799Z,10.10
2018-04-28T03:20:30.611Z,10.20
2018-04-28T03:21:34.831Z,10.20
2018-04-28T03:22:40.354Z,10.20
2018-04-28T03:23:57.888Z,10.20
2018-04-28T03:26:45.082Z,10.30
2018-04-28T03:28:07.081Z,10.30
2018-04-28T03:29:12.922Z,10.30
2018-04-28T03:30:19.042Z,10.30
2018-04-28T03:31:29.600Z,10.30
2018-04-28T03:34:16.126Z,10.40
2018-04-28T03:37:09.522Z,10.40
2018-04-28T03:38:44.238Z,10.40
2018-04-28T03:40:02.134Z,10.40
2018-04-28T03:41:25.839Z,10.50
2018-04-28T03:42:56.159Z,10.50
2018-04-28T03:44:04.563Z,10.60
2018-04-28T03:45:09.645Z,10.60
2018-04-28T03:46:22.405Z,10.60
2018-04-28T03:49:20.080Z,10.60
2018-04-28T03:50:30.242Z,10.70
2018-04-28T03:51:56.324Z,10.60
2018-04-28T03:53:07.269Z,10.60
2018-04-28T03:55:46.323Z,10.50
2018-04-28T03:56:57.260Z,10.50
2018-04-28T03:58:19.234Z,10.50
2018-04-28T03:59:41.314Z,10.50
2018-04-28T04:01:03.397Z,10.40
2018-04-28T04:02:25.389Z,10.30
2018-04-28T04:03:29.570Z,10.30
2018-04-28T04:04:55.322Z,10.20
2018-04-28T04:06:10.033Z,10.20
2018-04-28T04:07:25.449Z,10.20
2018-04-28T04:10:31.858Z,10.20
2018-04-28T04:13:45.613Z,10.20
2018-04-28T04:15:00.249Z,10.20
2018-04-28T04:18:26.385Z,10.20
2018-04-28T04:21:37.547Z,10.30
2018-04-28T04:22:54.288Z,10.30
2018-04-28T04:26:18.620Z,10.30
2018-04-28T04:27:32.092Z,10.40
2018-04-28T04:28:43.110Z,10.30
2018-04-28T04:33:53.199Z,10.40
2018-04-28T04:37:00.084Z,10.30
2018-04-28T04:38:49.893Z,10.30
2018-04-28T04:41:46.798Z,10.30
2018-04-28T04:43:05.324Z,10.30
2018-04-28T04:44:18.658Z,10.30
2018-04-28T04:45:39.402Z,10.40
2018-04-28T04:50:19.842Z,10.40
2018-04-28T04:51:31.734Z,10.40
2018-04-28T04:56:33.601Z,10.60
2018-04-28T04:57:53.492Z,10.60
2018-04-28T04:59:13.386Z,10.70
2018-04-28T05:00:29.314Z,10.80
2018-04-28T05:03:52.004Z,10.90
2018-04-28T05:06:48.920Z,11.10
2018-04-28T05:08:11.686Z,11.10
2018-04-28T05:11:46.713Z,11.20
2018-04-28T05:14:45.622Z,11.30
2018-04-28T05:18:06.551Z,11.40
2018-04-28T05:19:30.063Z,11.40
2018-04-28T05:22:42.565Z,11.50
2018-04-28T05:25:37.654Z,11.50
2018-04-28T05:28:55.865Z,11.50
2018-04-28T05:30:15.514Z,11.50
2018-04-28T05:31:28.176Z,11.50
2018-04-28T05:32:44.045Z,11.50
2018-04-28T05:34:00.038Z,11.50
2018-04-28T05:35:21.652Z,11.60
2018-04-28T05:36:43.520Z,11.60
2018-04-28T05:43:24.214Z,11.70
2018-04-28T05:44:41.862Z,11.70
2018-04-28T05:47:51.129Z,11.80
2018-04-28T05:50:47.065Z,11.90
2018-04-28T05:53:53.918Z,12.00
2018-04-28T05:55:26.641Z,12.10
2018-04-28T05:58:41.729Z,12.20
2018-04-28T06:01:36.913Z,12.30
2018-04-28T06:03:00.353Z,12.30
2018-04-28T06:06:10.601Z,12.30
2018-04-28T06:09:25.857Z,12.40
2018-04-28T06:12:50.021Z,12.50
2018-04-28T06:17:18.796Z,12.60
2018-04-28T06:18:35.053Z,12.60
2018-04-28T06:19:50.723Z,12.70
2018-04-28T06:20:54.921Z,12.70
2018-04-28T06:21:59.093Z,12.70
2018-04-28T06:23:03.270Z,12.70
2018-04-28T06:24:08.396Z,12.80
2018-04-28T06:25:13.449Z,12.80
2018-04-28T06:26:17.657Z,12.80
2018-04-28T06:27:21.863Z,12.80
2018-04-28T06:28:26.219Z,12.80
2018-04-28T06:29:30.447Z,12.70
2018-04-28T06:30:34.641Z,12.70
2018-04-28T06:31:38.891Z,12.80
2018-04-28T06:32:43.894Z,12.80
2018-04-28T06:33:48.109Z,12.80
2018-04-28T06:34:52.320Z,12.90
2018-04-28T06:35:56.579Z,12.90
2018-04-28T06:37:00.861Z,12.90
2018-04-28T06:38:05.061Z,12.90
2018-04-28T06:39:09.294Z,12.90
2018-04-28T06:40:14.268Z,13.10
2018-04-28T06:41:18.481Z,13.10
2018-04-28T06:42:22.771Z,13.10
2018-04-28T06:43:26.930Z,13.10
2018-04-28T06:44:31.141Z,13.20
2018-04-28T06:45:35.337Z,13.20
2018-04-28T06:46:39.538Z,13.20
2018-04-28T06:47:43.792Z,13.30
2018-04-28T06:48:48.761Z,13.30
2018-04-28T06:49:52.945Z,13.30
2018-04-28T06:50:57.885Z,13.30
2018-04-28T06:52:02.049Z,13.40
2018-04-28T06:53:06.255Z,13.30
2018-04-28T06:54:10.437Z,13.30
2018-04-28T06:55:14.697Z,13.20
2018-04-28T06:56:18.903Z,13.20
2018-04-28T06:57:23.113Z,13.20
2018-04-28T06:58:27.334Z,13.20
2018-04-28T06:59:31.564Z,13.30
2018-04-28T07:00:35.994Z,13.30
2018-04-28T07:01:40.198Z,13.30
2018-04-28T07:02:44.410Z,13.40
2018-04-28T07:03:48.613Z,13.40
2018-04-28T07:04:52.840Z,13.50
2018-04-28T07:05:57.178Z,13.50
2018-04-28T07:07:01.378Z,13.60
2018-04-28T07:08:05.577Z,13.60
2018-04-28T07:09:09.769Z,13.70
2018-04-28T07:10:13.984Z,13.70
2018-04-28T07:11:18.656Z,13.70
2018-04-28T07:12:22.860Z,13.80
2018-04-28T07:13:27.048Z,13.90
2018-04-28T07:14:31.273Z,13.90
2018-04-28T07:15:35.483Z,13.90
2018-04-28T07:16:39.869Z,13.90
2018-04-28T07:17:44.091Z,14.00
2018-04-28T07:18:48.298Z,14.00
2018-04-28T07:19:52.488Z,13.90
2018-04-28T07:20:57.623Z,13.90
2018-04-28T07:22:02.582Z,14.00
2018-04-28T07:23:06.797Z,14.00
2018-04-28T07:24:11.048Z,14.20
2018-04-28T07:25:16.051Z,14.30
2018-04-28T07:26:20.284Z,14.30
2018-04-28T07:27:25.985Z,14.40
2018-04-28T07:28:30.302Z,14.30
2018-04-28T07:29:34.501Z,14.40
2018-04-28T07:30:38.701Z,14.50
2018-04-28T07:31:42.917Z,14.50
2018-04-28T07:32:47.138Z,14.60
2018-04-28T07:33:51.517Z,14.60
2018-04-28T07:34:56.513Z,14.80
2018-04-28T07:36:00.718Z,14.70
2018-04-28T07:37:04.957Z,14.90
2018-04-28T07:38:09.928Z,14.90
2018-04-28T07:39:14.682Z,14.80
2018-04-28T07:40:18.898Z,14.90
2018-04-28T07:41:23.114Z,14.90
2018-04-28T07:42:27.354Z,14.90
2018-04-28T07:43:32.342Z,14.90
2018-04-28T07:44:36.592Z,14.90
2018-04-28T07:45:41.627Z,14.90
2018-04-28T07:46:46.620Z,14.80
2018-04-28T07:47:50.884Z,14.80
2018-04-28T07:48:55.106Z,14.80
2018-04-28T07:49:59.695Z,14.80
2018-04-28T07:51:04.658Z,14.70
2018-04-28T07:52:08.882Z,14.70
2018-04-28T07:53:13.080Z,14.60
2018-04-28T07:54:17.314Z,14.60
2018-04-28T07:55:21.563Z,14.60
2018-04-28T07:56:26.606Z,14.60
2018-04-28T07:57:30.770Z,14.60
2018-04-28T07:58:34.965Z,14.60
2018-04-28T07:59:39.133Z,14.50
2018-04-28T08:00:43.538Z,14.50
2018-04-28T08:01:48.537Z,14.50
2018-04-28T08:02:52.746Z,14.50
2018-04-28T08:03:56.949Z,14.50
2018-04-28T08:05:01.141Z,14.50
2018-04-28T08:06:05.385Z,14.60
2018-04-28T08:07:09.598Z,14.70
2018-04-28T08:08:13.933Z,14.80
2018-04-28T08:09:18.113Z,14.80
2018-04-28T08:10:22.357Z,14.90
2018-04-28T08:11:27.343Z,15.00
2018-04-28T08:12:31.603Z,15.00
2018-04-28T08:13:36.565Z,15.10
2018-04-28T08:14:40.775Z,15.10
2018-04-28T08:15:44.997Z,15.20
2018-04-28T08:16:49.197Z,15.10
2018-04-28T08:17:53.437Z,15.20
2018-04-28T08:18:57.650Z,15.20
2018-04-28T08:20:01.844Z,15.30
2018-04-28T08:21:06.061Z,15.40
2018-04-28T08:22:10.326Z,15.40
2018-04-28T08:23:14.667Z,15.40
2018-04-28T08:24:18.890Z,15.50
2018-04-28T08:25:23.094Z,15.60
2018-04-28T08:26:27.348Z,15.60
2018-04-28T08:27:33.057Z,15.70
2018-04-28T08:28:37.735Z,15.70
2018-04-28T08:29:42.710Z,15.80
2018-04-28T08:30:47.130Z,15.80
2018-04-28T08:31:51.338Z,15.90
2018-04-28T08:32:55.525Z,15.90
2018-04-28T08:33:59.738Z,16.00
2018-04-28T08:35:04.325Z,16.00
2018-04-28T08:36:09.317Z,16.00
2018-04-28T08:37:13.530Z,16.00
2018-04-28T08:38:17.723Z,16.00
2018-04-28T08:39:21.933Z,15.90
2018-04-28T08:40:26.189Z,15.90
2018-04-28T08:41:30.504Z,16.00
2018-04-28T08:42:34.793Z,16.00
2018-04-28T08:43:39.760Z,16.10
2018-04-28T08:44:43.979Z,16.10
2018-04-28T08:45:48.201Z,16.00
2018-04-28T08:46:52.406Z,16.00
2018-04-28T08:47:56.593Z,16.10
2018-04-28T08:49:01.622Z,16.10
2018-04-28T08:50:06.759Z,16.20
2018-04-28T08:51:11.797Z,16.20
2018-04-28T08:52:15.969Z,16.20
2018-04-28T08:53:20.174Z,16.20
2018-04-28T08:54:24.391Z,16.30
2018-04-28T08:55:28.722Z,16.20
2018-04-28T08:56:33.679Z,15.90
2018-04-28T08:57:37.874Z,15.90
2018-04-28T08:58:42.871Z,15.90
2018-04-28T09:00:04.903Z,15.90
2018-04-28T09:01:09.940Z,15.80
2018-04-28T09:02:14.122Z,15.80
2018-04-28T09:03:18.305Z,15.80
2018-04-28T09:04:23.221Z,15.70
2018-04-28T09:05:27.406Z,15.70
2018-04-28T09:06:31.639Z,15.60
2018-04-28T09:07:38.737Z,15.60
2018-04-28T09:08:42.953Z,15.70
2018-04-28T09:09:47.125Z,15.70
2018-04-28T09:10:51.289Z,15.70
2018-04-28T09:11:55.458Z,15.80
2018-04-28T09:12:59.695Z,15.70
2018-04-28T09:14:04.696Z,15.90
2018-04-28T09:15:09.632Z,16.00
2018-04-28T09:16:13.797Z,16.00
2018-04-28T09:17:17.963Z,16.20
2018-04-28T09:18:22.351Z,16.20
2018-04-28T09:19:27.350Z,16.50
2018-04-28T09:20:31.486Z,16.50
2018-04-28T09:21:36.624Z,16.90
2018-04-28T09:22:40.797Z,16.90
2018-04-28T09:23:45.100Z,17.10
2018-04-28T09:24:49.299Z,17.10
2018-04-28T09:25:53.474Z,17.00
2018-04-28T09:26:57.657Z,17.00
2018-04-28T09:28:01.822Z,16.70
2018-04-28T09:29:06.492Z,16.60
2018-04-28T09:30:11.443Z,16.50
2018-04-28T09:31:15.630Z,16.50
2018-04-28T09:32:19.857Z,16.50
2018-04-28T09:33:24.082Z,16.70
2018-04-28T09:34:28.474Z,16.60
2018-04-28T09:35:34.037Z,16.80
2018-04-28T09:36:38.223Z,16.80
2018-04-28T09:37:42.414Z,16.80
2018-04-28T09:38:46.586Z,16.80
2018-04-28T09:39:50.998Z,16.70
2018-04-28T09:40:55.154Z,16.60
2018-04-28T09:42:00.842Z,16.60
2018-04-28T09:43:05.034Z,16.60
2018-04-28T09:44:09.970Z,16.60
2018-04-28T09:45:14.394Z,16.60
2018-04-28T09:46:18.600Z,16.60
2018-04-28T09:47:23.531Z,16.70
2018-04-28T09:48:27.734Z,16.80
2018-04-28T09:49:32.670Z,16.90
2018-04-28T09:50:36.857Z,16.90
2018-04-28T09:51:41.817Z,17.00
2018-04-28T09:52:45.989Z,17.00
2018-04-28T09:53:50.169Z,16.90
2018-04-28T09:54:54.378Z,16.90
2018-04-28T09:55:58.581Z,17.00
2018-04-28T09:57:02.761Z,16.90
2018-04-28T09:58:07.912Z,16.90
2018-04-28T09:59:12.077Z,17.00
2018-04-28T10:00:31.602Z,16.90
2018-04-28T10:01:41.302Z,16.90
2018-04-28T10:02:45.543Z,16.80
2018-04-28T10:03:54.768Z,16.90
2018-04-28T10:04:58.946Z,17.00
2018-04-28T10:06:03.882Z,17.00
2018-04-28T10:07:08.050Z,16.90
2018-04-28T10:08:12.317Z,16.90
2018-04-28T10:09:16.493Z,16.90
2018-04-28T10:10:21.474Z,17.10
2018-04-28T10:11:25.637Z,17.10
2018-04-28T10:12:30.574Z,17.20
2018-04-28T10:13:34.877Z,17.10
2018-04-28T10:14:39.826Z,17.10
2018-04-28T10:15:44.024Z,17.10
2018-04-28T10:16:48.244Z,17.20
2018-04-28T10:17:52.435Z,17.10
2018-04-28T10:18:57.778Z,17.00
2018-04-28T10:20:02.810Z,17.00
2018-04-28T10:21:06.922Z,17.00
2018-04-28T10:22:11.861Z,17.10
2018-04-28T10:23:16.060Z,17.10
2018-04-28T10:24:21.151Z,17.20
2018-04-28T10:25:26.170Z,17.10
2018-04-28T10:26:30.329Z,17.10
2018-04-28T10:27:35.275Z,17.30
2018-04-28T10:28:39.568Z,17.30
2018-04-28T10:29:44.546Z,17.20
2018-04-28T10:30:48.924Z,17.20
2018-04-28T10:31:53.096Z,17.10
2018-04-28T10:32:57.269Z,17.20
2018-04-28T10:34:01.434Z,17.30
2018-04-28T10:35:06.431Z,17.70
2018-04-28T10:36:10.612Z,17.70
2018-04-28T10:37:14.781Z,17.80
2018-04-28T10:38:19.801Z,18.20
2018-04-28T10:39:23.977Z,18.10
2018-04-28T10:40:28.541Z,18.00
2018-04-28T10:41:33.468Z,17.90
2018-04-28T10:42:38.410Z,17.80
2018-04-28T10:43:42.610Z,17.80
2018-04-28T10:44:47.549Z,17.60
2018-04-28T10:45:51.757Z,17.60
2018-04-28T10:46:56.693Z,17.80
2018-04-28T10:48:00.861Z,17.70
2018-04-28T10:49:06.529Z,17.80
2018-04-28T10:50:11.462Z,17.90
2018-04-28T10:51:15.682Z,17.90
2018-04-28T10:52:19.845Z,17.90
2018-04-28T10:53:24.018Z,17.80
2018-04-28T10:54:28.191Z,17.70
2018-04-28T10:55:33.125Z,17.60
2018-04-28T10:56:38.186Z,17.40
2018-04-28T10:57:42.456Z,17.40
2018-04-28T10:58:47.395Z,17.40
2018-04-28T10:59:52.343Z,17.40
2018-04-28T11:00:56.522Z,17.40
2018-04-28T11:02:00.749Z,17.40
2018-04-28T11:03:05.838Z,17.40
2018-04-28T11:04:11.524Z,17.40
2018-04-28T11:05:16.497Z,17.60
2018-04-28T11:06:20.778Z,17.60
2018-04-28T11:07:25.050Z,17.70
2018-04-28T11:08:30.779Z,17.90
2018-04-28T11:09:34.957Z,17.80
2018-04-28T11:10:39.138Z,17.60
2018-04-28T11:11:44.086Z,17.70
2018-04-28T11:12:48.273Z,17.70
2018-04-28T11:13:53.469Z,17.60
2018-04-28T11:14:57.652Z,17.60
2018-04-28T11:16:01.844Z,17.60
2018-04-28T11:17:06.012Z,17.50
2018-04-28T11:18:11.717Z,17.30
2018-04-28T11:19:15.952Z,17.20
2018-04-28T11:20:20.119Z,17.30
2018-04-28T11:21:25.097Z,17.10
2018-04-28T11:22:30.093Z,17.10
2018-04-28T11:23:34.278Z,17.20
2018-04-28T11:25:38.937Z,17.40
2018-04-28T11:26:43.159Z,17.40
2018-04-28T11:27:47.321Z,17.50
2018-04-28T11:28:52.327Z,17.60
2018-04-28T11:29:56.493Z,17.60
2018-04-28T11:31:00.668Z,17.60
2018-04-28T11:32:05.619Z,17.60
2018-04-28T11:33:09.814Z,17.60
2018-04-28T11:34:14.805Z,17.70
2018-04-28T11:35:18.993Z,17.70
2018-04-28T11:36:23.166Z,17.70
2018-04-28T11:37:28.851Z,17.70
2018-04-28T11:38:33.051Z,17.70
2018-04-28T11:39:37.304Z,17.80
2018-04-28T11:40:41.479Z,17.80
2018-04-28T11:41:45.653Z,17.80
2018-04-28T11:42:50.605Z,17.60
2018-04-28T11:43:54.764Z,17.50
2018-04-28T11:44:59.328Z,17.50
2018-04-28T11:46:03.543Z,17.40
2018-04-28T11:47:07.717Z,17.50
2018-04-28T11:48:12.668Z,17.30
2018-04-28T11:49:17.609Z,17.30
2018-04-28T11:50:21.813Z,17.20
2018-04-28T11:51:26.003Z,17.30
2018-04-28T11:52:30.933Z,17.40
2018-04-28T11:53:35.873Z,17.40
2018-04-28T11:54:40.028Z,17.30
2018-04-28T11:55:44.385Z,17.40
2018-04-28T11:56:49.324Z,17.50
2018-04-28T11:57:54.258Z,17.70
2018-04-28T11:58:58.558Z,17.60
2018-04-28T12:00:02.714Z,17.60
2018-04-28T12:01:06.944Z,17.70
2018-04-28T12:02:11.112Z,17.80
2018-04-28T12:03:15.276Z,17.90
2018-04-28T12:04:19.485Z,17.80
2018-04-28T12:05:25.177Z,17.40
2018-04-28T12:06:29.369Z,17.40
2018-04-28T12:07:33.559Z,17.40
2018-04-28T12:08:38.509Z,17.30
2018-04-28T12:09:43.445Z,17.30
2018-04-28T12:10:47.617Z,17.30
2018-04-28T12:11:51.825Z,17.40
2018-04-28T12:12:57.497Z,17.60
2018-04-28T12:14:02.460Z,17.60
2018-04-28T12:15:06.629Z,17.70
2018-04-28T12:16:11.562Z,17.60
2018-04-28T12:17:16.520Z,17.30
2018-04-28T12:18:20.712Z,17.20
2018-04-28T12:19:24.890Z,17.00
2018-04-28T12:20:29.067Z,16.90
2018-04-28T12:21:33.255Z,16.80
2018-04-28T12:22:37.453Z,16.60
2018-04-28T12:23:41.863Z,16.50
2018-04-28T12:24:46.073Z,16.40
2018-04-28T12:25:50.247Z,16.50
2018-04-28T12:26:55.919Z,16.50
2018-04-28T12:28:01.040Z,16.50
2018-04-28T12:29:05.974Z,16.60
2018-04-28T12:30:10.925Z,16.60
2018-04-28T12:31:16.413Z,16.60
2018-04-28T12:32:20.625Z,16.60
2018-04-28T12:33:24.897Z,16.50
2018-04-28T12:34:29.065Z,16.60
2018-04-28T12:35:34.031Z,17.00
2018-04-28T12:36:38.204Z,17.00
2018-04-28T12:37:43.165Z,17.30
2018-04-28T12:38:47.366Z,17.30
2018-04-28T12:39:51.534Z,17.40
2018-04-28T12:40:56.557Z,17.40
2018-04-28T12:42:01.520Z,17.50
2018-04-28T12:43:06.457Z,17.60
2018-04-28T12:44:10.852Z,17.60
2018-04-28T12:45:15.061Z,17.60
2018-04-28T12:46:19.997Z,17.60
2018-04-28T12:47:24.936Z,17.50
2018-04-28T12:48:29.869Z,17.40
2018-04-28T12:49:34.129Z,17.40
2018-04-28T12:50:38.355Z,17.40
2018-04-28T12:51:42.517Z,17.40
2018-04-28T12:52:47.111Z,17.40
2018-04-28T12:53:52.055Z,17.20
2018-04-28T12:54:56.245Z,17.20
2018-04-28T12:56:00.440Z,17.30
2018-04-28T12:57:04.612Z,17.20
2018-04-28T12:58:08.817Z,17.40
2018-04-28T12:59:13.024Z,17.40
2018-04-28T13:00:17.709Z,17.40
2018-04-28T13:01:22.669Z,17.60
2018-04-28T13:02:26.842Z,17.60
2018-04-28T13:03:31.890Z,17.80
2018-04-28T13:04:36.057Z,17.70
2018-04-28T13:05:40.254Z,18.00
2018-04-28T13:06:44.435Z,18.30
2018-04-28T13:07:48.629Z,18.40
2018-04-28T13:08:52.800Z,18.60
2018-04-28T13:09:58.476Z,18.70
2018-04-28T13:11:03.409Z,18.80
2018-04-28T13:12:08.334Z,18.80
2018-04-28T13:13:13.665Z,18.80
2018-04-28T13:14:18.609Z,18.80
2018-04-28T13:15:22.843Z,18.70
2018-04-28T13:16:27.014Z,18.80
2018-04-28T13:17:31.997Z,18.70
2018-04-28T13:18:36.285Z,18.60
2018-04-28T13:19:40.585Z,18.50
2018-04-28T13:20:44.723Z,18.60
2018-04-28T13:21:49.037Z,18.70
2018-04-28T13:22:54.254Z,18.70
2018-04-28T13:23:58.268Z,18.70
2018-04-28T13:25:02.538Z,18.80
2018-04-28T13:26:07.461Z,19.00
2018-04-28T13:27:12.392Z,19.00
2018-04-28T13:28:17.448Z,19.00
2018-04-28T13:29:21.616Z,19.00
2018-04-28T13:30:26.251Z,19.00
2018-04-28T13:31:31.184Z,19.00
2018-04-28T13:32:36.139Z,19.00
2018-04-28T13:33:40.337Z,18.90
2018-04-28T13:34:44.525Z,18.80
2018-04-28T13:35:49.586Z,18.40
2018-04-28T13:36:53.748Z,18.40
2018-04-28T13:37:57.922Z,18.40
2018-04-28T13:39:02.109Z,18.30
2018-04-28T13:40:06.278Z,18.20
2018-04-28T13:41:10.553Z,18.30
2018-04-28T13:42:14.698Z,18.30
2018-04-28T13:43:18.883Z,18.30
2018-04-28T13:44:23.397Z,18.30
2018-04-28T13:45:27.675Z,18.20
2018-04-28T13:46:31.870Z,18.20
2018-04-28T13:47:37.313Z,18.40
2018-04-28T13:48:41.507Z,18.30
2018-04-28T13:49:45.676Z,18.40
2018-04-28T13:50:49.846Z,18.40
2018-04-28T13:51:54.777Z,18.60
2018-04-28T13:52:59.728Z,18.60
2018-04-28T13:54:04.104Z,18.70
2018-04-28T13:55:08.270Z,18.70
2018-04-28T13:56:12.437Z,18.80
2018-04-28T13:57:17.366Z,18.80
2018-04-28T13:58:22.309Z,18.90
2018-04-28T13:59:26.525Z,18.80
2018-04-28T14:00:30.973Z,18.90
2018-04-28T14:01:35.999Z,18.70
2018-04-28T14:02:41.600Z,18.70
2018-04-28T14:03:45.769Z,18.70
2018-04-28T14:04:50.001Z,18.70
2018-04-28T14:05:54.168Z,18.70
2018-04-28T14:06:58.333Z,18.60
2018-04-28T14:08:03.281Z,18.30
2018-04-28T14:09:07.464Z,18.30
2018-04-28T14:10:12.430Z,18.30
2018-04-28T14:11:16.622Z,18.30
2018-04-28T14:12:21.625Z,18.30
2018-04-28T14:13:25.797Z,18.30
2018-04-28T14:14:29.981Z,18.30
2018-04-28T14:15:34.159Z,18.30
2018-04-28T14:16:39.101Z,18.20
2018-04-28T14:17:44.075Z,18.20
2018-04-28T14:18:48.236Z,18.20
2018-04-28T14:19:53.209Z,18.10
2018-04-28T14:20:57.402Z,18.00
2018-04-28T14:22:01.581Z,18.00
2018-04-28T14:23:05.775Z,18.00
2018-04-28T14:24:11.453Z,18.00
2018-04-28T14:25:16.540Z,18.10
2018-04-28T14:26:22.216Z,18.10
2018-04-28T14:27:27.160Z,18.30
2018-04-28T14:28:31.328Z,18.20
2018-04-28T14:29:35.492Z,18.20
2018-04-28T14:30:39.725Z,18.20
2018-04-28T14:31:43.891Z,18.10
2018-04-28T14:32:48.148Z,18.10
2018-04-28T14:33:52.315Z,18.20
2018-04-28T14:34:56.477Z,18.10
2018-04-28T14:36:01.455Z,18.30
2018-04-28T14:37:05.666Z,18.30
2018-04-28T14:38:10.731Z,18.30
2018-04-28T14:39:14.893Z,18.30
2018-04-28T14:40:19.834Z,18.40
2018-04-28T14:41:24.760Z,18.40
2018-04-28T14:42:41.558Z,18.30
2018-04-28T14:43:46.546Z,18.40
2018-04-28T14:44:50.705Z,18.40
2018-04-28T14:45:54.872Z,18.50
2018-04-28T14:46:59.037Z,18.40
2018-04-28T14:48:03.200Z,18.30
2018-04-28T14:49:09.073Z,18.00
2018-04-28T14:50:14.000Z,18.00
2018-04-28T14:51:18.941Z,17.80
2018-04-28T14:52:23.105Z,17.80
2018-04-28T14:53:27.282Z,17.80
2018-04-28T14:54:31.581Z,17.80
2018-04-28T14:55:35.769Z,17.90
2018-04-28T14:56:40.710Z,17.90
2018-04-28T14:57:45.641Z,17.90
2018-04-28T14:58:49.806Z,17.90
2018-04-28T14:59:54.026Z,17.80
2018-04-28T15:00:58.198Z,18.00
2018-04-28T15:02:02.479Z,18.00
2018-04-28T15:03:06.636Z,18.20
2018-04-28T15:04:10.800Z,18.10
2018-04-28T15:05:14.961Z,18.10
2018-04-28T15:06:19.125Z,18.10
2018-04-28T15:07:23.358Z,17.90
2018-04-28T15:08:27.529Z,17.90
2018-04-28T15:09:32.544Z,17.90
2018-04-28T15:10:36.658Z,17.90
2018-04-28T15:11:41.594Z,17.90
2018-04-28T15:12:46.565Z,17.90
2018-04-28T15:13:50.865Z,17.80
2018-04-28T15:14:55.055Z,17.80
2018-04-28T15:15:59.998Z,17.80
2018-04-28T15:17:04.191Z,17.80
2018-04-28T15:18:09.932Z,17.60
2018-04-28T15:19:16.791Z,17.60
2018-04-28T15:20:21.752Z,17.60
2018-04-28T15:21:25.962Z,17.50
2018-04-28T15:22:30.125Z,17.50
2018-04-28T15:23:35.806Z,17.40
2018-04-28T15:24:40.838Z,17.40
2018-04-28T15:25:45.008Z,17.40
2018-04-28T15:26:49.174Z,17.30
2018-04-28T15:27:53.345Z,17.30
2018-04-28T15:28:58.277Z,17.30
2018-04-28T15:30:03.622Z,17.20
2018-04-28T15:31:08.563Z,17.20
2018-04-28T15:32:12.727Z,17.20
2018-04-28T15:33:16.889Z,17.30
2018-04-28T15:34:21.078Z,17.20
2018-04-28T15:35:26.513Z,17.10
2018-04-28T15:36:31.561Z,17.10
2018-04-28T15:37:35.731Z,17.10
2018-04-28T15:38:40.693Z,17.10
2018-04-28T15:39:45.626Z,17.20
2018-04-28T15:40:50.022Z,17.10
2018-04-28T15:41:54.972Z,17.10
2018-04-28T15:42:59.128Z,17.10
2018-04-28T15:44:03.297Z,17.10
2018-04-28T15:45:07.477Z,17.10
2018-04-28T15:46:12.927Z,16.90
2018-04-28T15:47:17.848Z,16.80
2018-04-28T15:48:22.788Z,16.70
2018-04-28T15:49:27.709Z,16.60
2018-04-28T15:50:32.647Z,16.60
2018-04-28T15:51:36.837Z,16.60
2018-04-28T15:52:41.769Z,16.60
2018-04-28T15:53:46.761Z,16.60
2018-04-28T15:54:50.916Z,16.60
2018-04-28T15:55:55.850Z,16.60
2018-04-28T15:57:00.775Z,16.70
2018-04-28T15:58:05.720Z,16.70
2018-04-28T15:59:10.028Z,16.70
2018-04-28T16:00:14.198Z,16.80
2018-04-28T16:01:19.872Z,16.90
2018-04-28T16:02:24.807Z,17.00
2018-04-28T16:03:29.010Z,17.00
2018-04-28T16:04:33.217Z,17.10
2018-04-28T16:05:38.160Z,17.20
2018-04-28T16:06:42.332Z,17.20
2018-04-28T16:07:46.567Z,17.30
2018-04-28T16:08:50.738Z,17.40
2018-04-28T16:09:55.084Z,17.40
2018-04-28T16:11:00.009Z,17.50
2018-04-28T16:12:04.936Z,17.60
2018-04-28T16:13:09.875Z,17.60
2018-04-28T16:14:14.804Z,17.70
2018-04-28T16:15:20.165Z,17.70
2018-04-28T16:16:24.352Z,17.70
2018-04-28T16:17:28.667Z,17.70
2018-04-28T16:18:32.851Z,17.70
2018-04-28T16:19:37.029Z,17.70
2018-04-28T16:20:41.259Z,17.80
2018-04-28T16:21:47.043Z,17.50
2018-04-28T16:22:51.181Z,17.50
2018-04-28T16:23:55.403Z,17.40
2018-04-28T16:24:59.564Z,17.40
2018-04-28T16:26:04.603Z,17.10